Terminal Aerodrome Forecast
Issued by NWS Norman, OK

Home | Current Version | Previous Version | Text Only | Print | Product List | Glossary On
Versions: 1 2 3 4 5 6 7 8 9 10 11 12 13 14 15 16
000
FTUS44 KOUN 282322
TAFSPS
TAF
KSPS 282322Z 2900/2924 12013KT P6SM FEW050 BKN250
     FM290600 09010KT P6SM OVC050
      TEMPO 2908/2912 3SM -TSRA BR OVC015CB
     FM291200 14012G16KT P6SM OVC015
      TEMPO 2912/2916 4SM -TSRA BR OVC008CB
     FM291800 18014G23KT P6SM BKN035=

USA.gov is the U.S. government's official web portal to all federal, state and local government web resources and services.